Detalii statie AGROSTAR [00001CEF]

Toti senzorii

Date Temperatura solului [C]Precipitatii [mm]Voltaj baterie [mV]HC Air temperature [C]HC Relative humidity [%]Punctul de roua [C]
medieminmaxsumaultimamedieminmaxmediemediemin
2019-04-19 19:00:00 13 12.9 13.1 0 6834 13.4 12.37 14.38 22.56 -7.6 -8.4
2019-04-19 20:00:00 13 13 13 0 6766 10.88 9.62 12.05 29.16 -6.5 -7.3
2019-04-19 21:00:00 12.9 12.8 13.1 0 6738 8.59 7.89 9.75 37.19 -5.3 -5.7
2019-04-19 22:00:00 12.8 12.7 12.9 0 6718 7.68 7.14 8.07 49.13 -2.4 -4.2
2019-04-19 23:00:00 12.6 12.5 12.8 0 6708 6.72 6.38 7.04 61.5 -0.1 -0.6
2019-04-20 00:00:00 12.5 12.4 12.7 0 6708 6.05 5.44 6.74 65.99 0 0
2019-04-20 01:00:00 12.3 12.1 12.5 0 6698 5.38 5.08 5.64 69.68 0.1 0
2019-04-20 02:00:00 12.1 12 12.2 0 6678 5.2 4.83 5.36 69.76 0 -0.1
2019-04-20 03:00:00 11.8 11.7 12.1 0 6678 4.15 3.84 4.5 75.45 0.1 -0.3
2019-04-20 04:00:00 11.6 11.5 11.9 0 6668 4.61 4.5 4.86 75.6 0.5 0.5
2019-04-20 05:00:00 11.4 11.3 11.6 0 6678 3.35 2.25 4.51 80.23 0.1 -0.1
2019-04-20 06:00:00 11.2 11.2 11.4 0 6678 2.02 1.7 2.51 87.18 0 -0.3
2019-04-20 07:00:00 11 10.8 11.2 0 6738 2.54 1.64 3.64 86.21 0.3 -0.1
2019-04-20 08:00:00 10.8 10.6 11 0 6914 5.2 3.85 6.86 73.14 0.6 0.2
2019-04-20 09:00:00 10.6 10.3 10.8 0 7166 8.64 7.13 10.32 56.81 0.4 -0.2
2019-04-20 10:00:00 10.5 10.4 10.6 0 7274 13.65 10.92 15.87 34.57 -2 -4.2
2019-04-20 11:00:00 10.6 10.6 10.8 0 7264 16.83 15.71 17.93 23.49 -4.4 -5.4
2019-04-20 12:00:00 11 10.8 11.3 0 7216 16.96 14.85 18.48 23.43 -4.3 -5.6
2019-04-20 13:00:00 11.6 11.3 11.8 0 7264 16.26 14.47 18.31 23.18 -5.1 -6.3
2019-04-20 14:00:00 12.1 11.9 12.3 0 7264 17.31 15.21 18.56 20.83 -5.6 -7.1
2019-04-20 15:00:00 12.5 12.4 12.8 0 7264 17.9 16.67 19.33 20.35 -5.3 -6.4
2019-04-20 16:00:00 12.9 12.8 13.1 0 7108 17.1 15.92 19.02 22.1 -4.8 -5.7
2019-04-20 17:00:00 13.2 13.1 13.4 0 7088 16.89 16.14 17.51 22.68 -4.7 -5.8
2019-04-20 18:00:00 13.4 13.4 13.6 0 7254 15.99 15.51 16.51 25.03 -4.1 -5.6
2019-04-20 19:00:00 13.5 13.4 13.8 0 6834 13.3 10.84 15.08 31.61 -3.4 -4.2
2019-04-20 20:00:00 13.6 13.4 13.7 0 6786 9.34 7.55 10.7 45.45 -1.9 -2.9
2019-04-20 21:00:00 13.5 13.5 13.7 0 6738 7.03 6.71 7.42 55.42 -1.3 -1.7
2019-04-20 22:00:00 13.4 13.2 13.5 0 6718 6.21 5.24 7.08 59.57 -1.1 -1.4
2019-04-20 23:00:00 13.1 13 13.3 0 6708 5.04 4.46 5.59 64.4 -1.1 -1.4
2019-04-21 00:00:00 13 12.9 13.1 0 6698 5.34 4.82 5.8 62.87 -1.1 -1.3
2019-04-21 01:00:00 12.7 12.6 12.9 0 6688 4.95 4.5 5.66 63.57 -1.4 -1.5
2019-04-21 02:00:00 12.5 12.3 12.7 0 6678 4.22 4.01 4.53 66.88 -1.4 -1.5
2019-04-21 03:00:00 12.3 12.3 12.5 0 6688 4.7 4.37 4.95 64.72 -1.4 -1.6
2019-04-21 04:00:00 12 11.9 12.2 0 6688 4.86 4.47 5.05 63.61 -1.5 -1.7
2019-04-21 05:00:00 11.8 11.8 11.9 0 6678 4.57 4.1 4.83 66.19 -1.2 -1.6
2019-04-21 06:00:00 11.6 11.5 11.7 0 6678 4.62 4.3 5.39 68.16 -0.7 -1
2019-04-21 07:00:00 11.5 11.4 11.6 0 6718 5.97 5.52 6.65 63.87 -0.3 -0.9
2019-04-21 08:00:00 11.3 11.2 11.4 0 6914 7.46 6.8 7.95 58.05 -0.3 -0.6
2019-04-21 09:00:00 11.2 11.1 11.4 0 7226 9.72 8.39 10.66 46.59 -1.2 -2
2019-04-21 10:00:00 11.2 11.1 11.4 0 7274 13.46 10.81 15.68 38.58 -0.5 -1.2
2019-04-21 11:00:00 11.4 11.3 11.6 0 7274 16.14 14.97 17.01 32 -0.7 -2.2
2019-04-21 12:00:00 11.8 11.6 12.1 0 7196 16.61 15.71 17.87 29.15 -1.6 -4.6
2019-04-21 13:00:00 12.2 12 12.4 0 7254 17.14 16.32 18.03 28.67 -1.3 -2.4
2019-04-21 14:00:00 12.6 12.5 12.9 0 7176 16.78 15.77 18.02 29.41 -1.3 -2.4
2019-04-21 15:00:00 12.9 12.8 13.2 0 7264 17.95 16.61 19.19 27.43 -1.2 -2
2019-04-21 16:00:00 13.2 13.1 13.5 0 7050 17.3 16.22 18.16 28.26 -1.4 -2.3
2019-04-21 17:00:00 13.4 13.2 13.6 0 7264 15.15 14.05 15.93 37.13 0.3 -1.1
2019-04-21 18:00:00 13.4 13.3 13.5 0 6932 14.94 14.42 15.31 36.84 0.1 -0.4